CheckWX is a tool to help pilots better visualize weather data.  It is not intended as a substitute for an official pre-flight weather briefing.

17:12:54 UTC

SVJC TAF
Josefa Camejo International Airport
Paraguaná, Venezuela
TAF SVJC 171600Z 1718/1818 08012KT 9999 FEW013 TX33/1900Z TN24/0800Z TEMPO 1718/1722 09015KT SCT013

Jun-17@
18:00 UTC

Jun-17 @ 18:00 UTC

Jun-18@
18:00 UTC

Jun-18 @ 18:00 UTC

TAF SVJC 171600Z 1718/1818 08012KT 9999 FEW013 TX33/1900Z TN24/0800Z
Wind
  • 080° at 12 KTS
Cloud Levels
  • Few at 1,300' AGL

Jun-17@
18:00 UTC

Jun-17 @ 18:00 UTC

Jun-17@
22:00 UTC

Jun-17 @ 22:00 UTC

TEMPO 1718/1722 09015KT SCT013

Expired

Wind
  • 090° at 15 KTS
Cloud Levels
  • Scattered at 1,300' AGL